Schwäbisch Hall-Weckrieden Airport EDTX

Flugplatz Daten

Name: Schwäbisch Hall-Weckrieden Airport

Ident: EDTX

Lat: 49,12444305

Long: 9,781110764

Platzhöhe: 1299 ft

IataCode:

City: Schwäbisch Hall

Metar

2019/03/06 14:00
EDTX 061400Z 18013KT 9999 FEW033 23/04 Q1018 NOSIG

Taf

Gewünschte Webcam nicht vorhanden? Dann fügen Sie eine hinzu. Sie wird dann so schnell wie möglich freigeschaltet
Url: Title: